KGA weather

Kananga Airport
Kananga, Kasai-Occidental Province, Congo (Kinshasa)

Public forecast

Using degrees Celsius for public forecast. Weather courtesy of forecast.io.

Closest aviation weather report (METAR) to Kananga Airport

Closest report is Mbuji Mayi Airport, 67.0 nm (124.1 km) ESE. Retrieved 2019/10/17 09:00 UTC (11 minutes ago):

FZWA 170900Z 03004KT 9999 BKN015 BKN100 23/19 Q1017 NOSIG

Closest aviation forecast (TAF) to Kananga Airport

Forecast is more than 12 hours old.

Closest forecast is Mbuji Mayi Airport, 67.0 nm (124.1 km) ESE. Retrieved 2019/09/09 12:00 UTC (1 month ago):

TAF FZWA 091100Z 0912/1018 24008KT 5000 HZ NSC BECMG 0922/1000 30004KT FEW014 PROB40 1004/1008 2000 BR SCT008